Acapulco Jet — IWUM — position and weather

sailwx.info

Track history (hours):
 
Tides and Currents Weather Stations Pressure Air Temp Water Temp Dewpoint Dewpoint Depression Visibility Wind Speed Wind Dir Waves Ship Positions

Acapulco Jet

Last reported at 2015-Jul-28 17:33 UTC. Time now 2015-Jul-29 13:35 UTC.
Position N 42°52' E 010°25'.

Length 35 m; draft 1.3 m.

Type: High speed craft. MMSI: 247050100.

Date/timePositionNaut miles runAvg speedWind from/ knotsBaromVisibWave heightAir tempDewpointWater temp
2015-Jul-28 17:33N 42°52' E 010°25'1 0.7
2015-Jul-28 16:33N 42°52' E 010°26'3 2.1
2015-Jul-28 15:05N 42°54' E 010°28'915.3
2015-Jul-28 14:32N 42°49' E 010°19'3 2.6
2015-Jul-28 13:31N 42°50' E 010°22'3 0.1
2015-Jul-27 17:28N 42°52' E 010°26'  
2015-Jul-24 17:33N 42°52' E 010°25'0 0.0
2015-Jul-24 16:33N 42°52' E 010°25'2 0.6
2015-Jul-24 13:33N 42°51' E 010°23'2 0.7
2015-Jul-24 11:25N 42°52' E 010°24'5 4.8
2015-Jul-24 10:19N 42°49' E 010°19'9 9.7
2015-Jul-24 09:25N 42°53' E 010°30'4 3.4
2015-Jul-24 08:16N 42°56' E 010°33'0 0.2
2015-Jul-24 05:32N 42°56' E 010°33'7 0.6
2015-Jul-23 17:33N 42°52' E 010°26'0 0.4
2015-Jul-23 16:29N 42°52' E 010°26'7 5.3
2015-Jul-23 15:13N 42°56' E 010°34'7 3.8
2015-Jul-23 13:25N 42°52' E 010°25'0 0.2
2015-Jul-23 11:27N 42°52' E 010°26'6 5.1
2015-Jul-23 10:19N 42°49' E 010°19'5 7.0
2015-Jul-23 09:32N 42°52' E 010°26'3 1.2
2015-Jul-23 07:16N 42°51' E 010°22'3 0.2
2015-Jul-22 17:31N 42°52' E 010°26'3 0.8
2015-Jul-22 13:32N 42°50' E 010°22'3 1.4
2015-Jul-22 11:27N 42°52' E 010°26'5 5.9
2015-Jul-22 10:33N 42°49' E 010°19'5 5.3
2015-Jul-22 09:33N 42°52' E 010°25'7 5.6
2015-Jul-22 08:16N 42°56' E 010°33'10 9.5
2015-Jul-22 07:15N 42°51' E 010°22'10 5.4
2015-Jul-22 05:28N 42°56' E 010°33'8 0.7
2015-Jul-21 17:34N 42°52' E 010°24'8 3.4
2015-Jul-21 15:13N 42°56' E 010°33'10 6.0
2015-Jul-21 13:34N 42°50' E 010°22'3 1.5
2015-Jul-21 11:26N 42°52' E 010°26'5 2.2
2015-Jul-21 09:21N 42°54' E 010°31'2 2.0
2015-Jul-21 08:20N 42°56' E 010°33'1212.3
2015-Jul-21 07:22N 42°49' E 010°20'12 6.5
2015-Jul-21 05:29N 42°56' E 010°33'7 0.6
2015-Jul-20 17:31N 42°52' E 010°26'1 1.0
2015-Jul-20 16:33N 42°52' E 010°27'6 3.0
2015-Jul-20 14:26N 42°49' E 010°19'5 1.8
2015-Jul-20 11:29N 42°52' E 010°25'7 1.2
2015-Jul-20 05:32N 42°56' E 010°33'4 0.3
2015-Jul-19 17:29N 42°53' E 010°30'3 3.5
2015-Jul-19 16:31N 42°52' E 010°26'5 1.6
2015-Jul-19 13:33N 42°49' E 010°20'12 7.9
2015-Jul-19 12:05N 42°56' E 010°33'612.0
2015-Jul-19 11:34N 42°52' E 010°26'6 5.2
2015-Jul-19 10:28N 42°49' E 010°19'5 5.8
2015-Jul-19 09:33N 42°52' E 010°25'7 5.7
2015-Jul-19 08:17N 42°56' E 010°33'1214.6
2015-Jul-19 07:25N 42°49' E 010°20'13 6.5
2015-Jul-19 05:29N 42°56' E 010°34'  
Track history (hours):
 
Tides and Currents Weather Stations Pressure Air Temp Water Temp Dewpoint Dewpoint Depression Visibility Wind Speed Wind Dir Waves Ship Positions

Acapulco Jet

Last reported at 2015-Jul-28 17:33 UTC. Time now 2015-Jul-29 13:35 UTC.
Position N 42°52' E 010°25'.

Length 35 m; draft 1.3 m.

Type: High speed craft. MMSI: 247050100.

Date/timePositionNaut miles runAvg speedWind from/ knotsBaromVisibWave heightAir tempDewpointWater temp
2015-Jul-28 17:33N 42°52' E 010°25'1 0.7
2015-Jul-28 16:33N 42°52' E 010°26'3 2.1
2015-Jul-28 15:05N 42°54' E 010°28'915.3
2015-Jul-28 14:32N 42°49' E 010°19'3 2.6
2015-Jul-28 13:31N 42°50' E 010°22'3 0.1
2015-Jul-27 17:28N 42°52' E 010°26'  
2015-Jul-24 17:33N 42°52' E 010°25'0 0.0
2015-Jul-24 16:33N 42°52' E 010°25'2 0.6
2015-Jul-24 13:33N 42°51' E 010°23'2 0.7
2015-Jul-24 11:25N 42°52' E 010°24'5 4.8
2015-Jul-24 10:19N 42°49' E 010°19'9 9.7
2015-Jul-24 09:25N 42°53' E 010°30'4 3.4
2015-Jul-24 08:16N 42°56' E 010°33'0 0.2
2015-Jul-24 05:32N 42°56' E 010°33'7 0.6
2015-Jul-23 17:33N 42°52' E 010°26'0 0.4
2015-Jul-23 16:29N 42°52' E 010°26'7 5.3
2015-Jul-23 15:13N 42°56' E 010°34'7 3.8
2015-Jul-23 13:25N 42°52' E 010°25'0 0.2
2015-Jul-23 11:27N 42°52' E 010°26'6 5.1
2015-Jul-23 10:19N 42°49' E 010°19'5 7.0
2015-Jul-23 09:32N 42°52' E 010°26'3 1.2
2015-Jul-23 07:16N 42°51' E 010°22'3 0.2
2015-Jul-22 17:31N 42°52' E 010°26'3 0.8
2015-Jul-22 13:32N 42°50' E 010°22'3 1.4
2015-Jul-22 11:27N 42°52' E 010°26'5 5.9
2015-Jul-22 10:33N 42°49' E 010°19'5 5.3
2015-Jul-22 09:33N 42°52' E 010°25'7 5.6
2015-Jul-22 08:16N 42°56' E 010°33'10 9.5
2015-Jul-22 07:15N 42°51' E 010°22'10 5.4
2015-Jul-22 05:28N 42°56' E 010°33'8 0.7
2015-Jul-21 17:34N 42°52' E 010°24'8 3.4
2015-Jul-21 15:13N 42°56' E 010°33'10 6.0
2015-Jul-21 13:34N 42°50' E 010°22'3 1.5
2015-Jul-21 11:26N 42°52' E 010°26'5 2.2
2015-Jul-21 09:21N 42°54' E 010°31'2 2.0
2015-Jul-21 08:20N 42°56' E 010°33'1212.3
2015-Jul-21 07:22N 42°49' E 010°20'12 6.5
2015-Jul-21 05:29N 42°56' E 010°33'7 0.6
2015-Jul-20 17:31N 42°52' E 010°26'1 1.0
2015-Jul-20 16:33N 42°52' E 010°27'6 3.0
2015-Jul-20 14:26N 42°49' E 010°19'5 1.8
2015-Jul-20 11:29N 42°52' E 010°25'7 1.2
2015-Jul-20 05:32N 42°56' E 010°33'4 0.3
2015-Jul-19 17:29N 42°53' E 010°30'3 3.5
2015-Jul-19 16:31N 42°52' E 010°26'5 1.6
2015-Jul-19 13:33N 42°49' E 010°20'12 7.9
2015-Jul-19 12:05N 42°56' E 010°33'612.0
2015-Jul-19 11:34N 42°52' E 010°26'6 5.2
2015-Jul-19 10:28N 42°49' E 010°19'5 5.8
2015-Jul-19 09:33N 42°52' E 010°25'7 5.7
2015-Jul-19 08:17N 42°56' E 010°33'1214.6
2015-Jul-19 07:25N 42°49' E 010°20'13 6.5
2015-Jul-19 05:29N 42°56' E 010°34'  

Dump ship's entire track history